Time;durP1;ratioP1;P1;durP2;ratioP2;P2;SDS_P1;SDS_P2;PMS_P1;PMS_P2;Temp;Humidity;BMP_temperature;BMP_pressure;BME280_temperature;BME280_humidity;BME280_pressure;Samples;Min_cycle;Max_cycle;Signal;HPM_P1;HPM_P2
2023/02/02 00:01:40;;;;;;;16.63;7.05;;;;;;;-2.31;81.03;95810.91;5052592;28;20382;-77
2023/02/02 00:04:05;;;;;;;25.48;8.55;;;;;;;-2.62;81.86;95834.44;5039169;28;20355;-77
2023/02/02 00:06:31;;;;;;;19.98;6.70;;;;;;;-2.44;81.60;95796.94;5071312;28;20068;-76
2023/02/02 00:08:57;;;;;;;17.50;6.45;;;;;;;-2.35;79.99;95791.16;5067756;28;20488;-78
2023/02/02 00:11:23;;;;;;;13.25;5.35;;;;;;;-1.80;77.05;95801.75;5053666;28;20061;-77
2023/02/02 00:13:48;;;;;;;19.42;6.88;;;;;;;-2.02;77.92;95771.78;5065771;28;20570;-78
2023/02/02 00:16:26;;;;;;;22.83;7.28;;;;;;;-2.01;76.42;95796.94;5068184;28;20816;-76
2023/02/02 00:18:52;;;;;;;23.70;7.20;;;;;;;-2.27;77.55;95822.00;5069128;28;20065;-77
2023/02/02 00:21:17;;;;;;;17.02;6.50;;;;;;;-2.19;76.02;95840.66;5067239;28;20085;-78
2023/02/02 00:23:43;;;;;;;12.27;5.25;;;;;;;-2.13;77.30;95806.34;5066837;28;20144;-77
2023/02/02 00:26:08;;;;;;;19.73;6.43;;;;;;;-2.02;76.60;95828.34;5060984;28;20429;-77
2023/02/02 00:28:34;;;;;;;19.70;6.90;;;;;;;-2.25;76.81;95812.31;5054405;28;20116;-77
2023/02/02 00:30:59;;;;;;;14.93;5.75;;;;;;;-2.06;77.04;95783.34;5067748;28;20075;-77
2023/02/02 00:33:25;;;;;;;14.88;5.60;;;;;;;-1.89;77.10;95789.28;5069486;28;20087;-76
2023/02/02 00:35:53;;;;;;;21.13;7.53;;;;;;;-2.22;77.14;95793.03;5069407;28;20081;-78
2023/02/02 00:38:18;;;;;;;18.88;6.30;;;;;;;-2.04;76.40;95815.38;5051140;28;20076;-77
2023/02/02 00:40:44;;;;;;;17.52;5.93;;;;;;;-1.70;75.22;95799.38;5068769;28;20086;-78
2023/02/02 00:43:09;;;;;;;17.33;6.28;;;;;;;-1.89;75.88;95803.19;5065889;28;20460;-78
2023/02/02 00:45:35;;;;;;;15.90;5.32;;;;;;;-1.79;75.11;95795.59;5053872;28;20084;-76
2023/02/02 00:48:01;;;;;;;16.42;6.53;;;;;;;-1.87;75.01;95806.50;5043451;28;20624;-77
2023/02/02 00:50:26;;;;;;;14.30;6.03;;;;;;;-1.83;75.02;95796.72;5066954;28;20076;-78
2023/02/02 00:52:52;;;;;;;22.40;7.03;;;;;;;-2.09;76.23;95816.59;5065219;28;20095;-77
2023/02/02 00:55:17;;;;;;;11.43;5.53;;;;;;;-1.95;76.52;95806.16;5067520;28;20607;-78
2023/02/02 00:57:43;;;;;;;17.63;5.75;;;;;;;-1.73;75.42;95803.03;5065457;28;20049;-77
2023/02/02 01:00:11;;;;;;;18.92;5.70;;;;;;;-1.49;74.16;95799.78;5064292;28;20101;-78
2023/02/02 01:02:37;;;;;;;17.60;6.53;;;;;;;-1.61;75.01;95801.44;5050224;28;20068;-78
2023/02/02 01:05:02;;;;;;;20.63;7.43;;;;;;;-1.82;75.85;95808.00;5066978;28;20091;-76
2023/02/02 01:07:28;;;;;;;19.60;6.68;;;;;;;-1.70;75.69;95809.00;5069785;28;20103;-76
2023/02/02 01:09:53;;;;;;;22.83;6.95;;;;;;;-1.82;75.49;95803.63;5069858;28;20076;-77
2023/02/02 01:12:18;;;;;;;14.73;4.45;;;;;;;-1.55;75.55;95789.75;5068319;28;20094;-77
2023/02/02 01:14:44;;;;;;;22.55;6.85;;;;;;;-1.62;75.16;95806.75;5071637;28;20273;-77
2023/02/02 01:17:09;;;;;;;20.38;5.95;;;;;;;-1.69;76.48;95800.25;5054774;28;20295;-78
2023/02/02 01:19:35;;;;;;;16.27;6.63;;;;;;;-1.78;76.10;95844.25;5063949;28;20096;-77
2023/02/02 01:22:00;;;;;;;17.90;6.88;;;;;;;-1.78;76.29;95773.78;5056568;28;20054;-77
2023/02/02 01:24:25;;;;;;;17.90;6.63;;;;;;;-1.80;75.72;95796.53;5064993;28;20083;-77
2023/02/02 01:26:51;;;;;;;19.83;6.68;;;;;;;-1.78;75.37;95826.00;5071597;28;20068;-78
2023/02/02 01:29:16;;;;;;;23.27;7.00;;;;;;;-2.06;76.64;95801.59;5065639;28;20078;-78
2023/02/02 01:31:42;;;;;;;20.10;7.03;;;;;;;-1.86;76.00;95807.34;5066799;28;20091;-76
2023/02/02 01:34:07;;;;;;;15.55;6.60;;;;;;;-2.02;75.89;95813.53;5051533;28;20054;-78
2023/02/02 01:36:33;;;;;;;19.45;6.05;;;;;;;-2.01;76.74;95785.66;5069897;28;20136;-77
2023/02/02 01:38:58;;;;;;;17.65;6.35;;;;;;;-1.86;76.33;95794.31;5066521;28;20074;-77
2023/02/02 01:41:24;;;;;;;16.30;6.38;;;;;;;-1.77;76.13;95785.88;5051553;28;20438;-78
2023/02/02 01:43:55;;;;;;;30.70;7.65;;;;;;;-1.79;75.38;95824.31;5052451;28;20098;-78
2023/02/02 01:46:22;;;;;;;16.55;6.32;;;;;;;-1.66;75.34;95807.88;5070198;28;20075;-77
2023/02/02 01:49:09;;;;;;;16.40;6.28;;;;;;;-1.89;75.59;95794.50;5071186;28;20097;-76
2023/02/02 01:51:37;;;;;;;14.35;5.82;;;;;;;-1.64;75.08;95793.78;5073563;28;20093;-78
2023/02/02 01:54:05;;;;;;;14.85;6.10;;;;;;;-1.73;75.26;95786.56;5072813;28;20512;-77
2023/02/02 01:56:33;;;;;;;17.27;6.05;;;;;;;-1.54;75.37;95791.44;5070465;28;20651;-78
2023/02/02 01:58:59;;;;;;;15.43;6.23;;;;;;;-1.35;73.92;95796.28;5068313;28;20068;-78
2023/02/02 02:01:25;;;;;;;21.30;7.32;;;;;;;-1.91;77.81;95806.78;5054458;28;20083;-78
2023/02/02 02:03:50;;;;;;;20.25;7.18;;;;;;;-1.74;77.84;95793.53;5050614;28;20085;-79
2023/02/02 02:06:16;;;;;;;20.95;7.15;;;;;;;-1.80;78.08;95804.34;5056679;28;20705;-77
2023/02/02 02:08:51;;;;;;;18.90;8.43;;;;;;;-2.13;80.06;95836.84;5044135;28;20173;-77
2023/02/02 02:11:20;;;;;;;18.65;7.72;;;;;;;-2.25;81.79;95802.72;5049505;28;20041;-77
2023/02/02 02:16:35;;;;;;;16.05;7.82;;;;;;;-2.64;83.70;95815.44;5058132;28;20851;-76
2023/02/02 02:19:14;;;;;;;17.08;8.40;;;;;;;-2.57;84.83;95797.69;5070282;28;20057;-76
2023/02/02 02:27:55;;;;;;;17.02;8.15;;;;;;;-2.31;83.24;95803.09;5071899;28;20088;-77
2023/02/02 02:30:41;;;;;;;15.00;6.10;;;;;;;-1.95;82.23;95802.69;5067562;28;20047;-75
2023/02/02 02:33:49;;;;;;;17.60;6.50;;;;;;;-1.83;81.53;95816.75;5069849;28;20438;-75
2023/02/02 02:36:30;;;;;;;13.65;6.15;;;;;;;-1.82;82.50;95802.78;5059304;28;20067;-75
2023/02/02 02:39:07;;;;;;;18.02;7.07;;;;;;;-1.65;80.85;95809.56;5068222;28;20071;-75
2023/02/02 02:41:33;;;;;;;16.52;7.45;;;;;;;-2.15;83.37;95804.75;5055995;28;20084;-75
2023/02/02 02:44:05;;;;;;;15.80;7.60;;;;;;;-2.13;82.30;95819.38;5044995;28;20108;-77
2023/02/02 02:46:30;;;;;;;14.35;6.35;;;;;;;-2.18;83.90;95807.56;5054032;28;20686;-76
2023/02/02 02:48:59;;;;;;;14.00;6.15;;;;;;;-2.32;83.54;95817.06;5051559;28;20356;-76
2023/02/02 02:51:46;;;;;;;11.60;5.80;;;;;;;-2.35;84.16;95821.66;5067733;28;20701;-76
2023/02/02 02:54:14;;;;;;;10.70;4.13;;;;;;;-2.15;83.18;95823.03;5072227;28;20190;-75
2023/02/02 02:57:07;;;;;;;6.95;3.83;;;;;;;-2.40;83.91;95829.72;5058329;28;20077;-76
2023/02/02 02:59:48;;;;;;;9.98;3.78;;;;;;;-2.37;85.00;95829.56;5071830;28;20048;-76
2023/02/02 03:02:27;;;;;;;4.10;3.00;;;;;;;-1.69;82.12;95819.38;5063127;28;20108;-75
2023/02/02 03:05:05;;;;;;;5.35;3.47;;;;;;;-1.95;82.44;95813.13;5068973;28;20083;-73
2023/02/02 03:08:05;;;;;;;5.35;3.17;;;;;;;-1.99;82.57;95813.34;5049734;28;20035;-76
2023/02/02 03:10:31;;;;;;;7.30;3.83;;;;;;;-2.40;84.63;95833.19;5069980;28;20031;-75
2023/02/02 03:12:56;;;;;;;8.88;4.07;;;;;;;-2.71;86.49;95831.53;5042573;28;20098;-76
2023/02/02 03:15:21;;;;;;;12.50;4.38;;;;;;;-2.28;83.84;95826.38;5070399;28;20045;-74
2023/02/02 03:17:48;;;;;;;6.22;3.55;;;;;;;-2.06;83.17;95819.88;5068230;28;20045;-74
2023/02/02 03:20:13;;;;;;;8.23;3.33;;;;;;;-1.64;81.07;95811.22;5057794;28;20074;-75
2023/02/02 03:22:39;;;;;;;7.38;4.22;;;;;;;-1.87;81.71;95800.44;5069339;28;20053;-75
2023/02/02 03:25:05;;;;;;;9.13;4.85;;;;;;;-2.02;82.16;95821.34;5076134;28;20072;-75
2023/02/02 03:27:31;;;;;;;12.55;6.10;;;;;;;-2.30;84.43;95803.94;5063619;28;20071;-75
2023/02/02 03:29:56;;;;;;;12.43;5.85;;;;;;;-2.23;84.38;95805.25;5053931;28;20100;-75
2023/02/02 03:32:22;;;;;;;11.15;5.22;;;;;;;-1.77;81.57;95809.38;5064853;28;20056;-75
2023/02/02 03:34:47;;;;;;;14.43;6.18;;;;;;;-2.44;84.33;95810.00;5066783;28;20522;-75
2023/02/02 03:37:13;;;;;;;13.07;5.70;;;;;;;-2.03;83.02;95811.00;5073880;28;20082;-75
2023/02/02 03:39:38;;;;;;;13.85;5.55;;;;;;;-2.27;84.78;95822.00;5068030;28;20368;-75
2023/02/02 03:42:03;;;;;;;8.68;4.60;;;;;;;-1.77;82.97;95803.31;5075332;28;20047;-75
2023/02/02 03:44:29;;;;;;;11.20;5.60;;;;;;;-2.11;82.80;95801.03;5067395;28;20194;-75
2023/02/02 03:46:54;;;;;;;10.10;5.20;;;;;;;-2.34;84.80;95824.16;5072082;28;20042;-75
2023/02/02 03:49:20;;;;;;;8.10;5.00;;;;;;;-2.07;84.63;95805.13;5064886;28;20069;-74
2023/02/02 03:51:45;;;;;;;11.48;5.82;;;;;;;-1.85;82.37;95803.81;5055393;28;20417;-74
2023/02/02 03:54:11;;;;;;;10.20;4.90;;;;;;;-1.85;82.94;95816.84;5065263;28;20042;-75
2023/02/02 03:56:36;;;;;;;10.50;5.43;;;;;;;-1.88;83.07;95817.03;5069289;28;20159;-76
2023/02/02 03:59:02;;;;;;;13.65;6.72;;;;;;;-2.20;84.92;95806.81;5064476;28;20043;-74
2023/02/02 04:01:27;;;;;;;17.05;6.65;;;;;;;-2.14;84.60;95812.50;5070412;28;20557;-75
2023/02/02 04:03:54;;;;;;;13.52;6.90;;;;;;;-2.37;84.85;95816.50;5047050;28;20067;-74
2023/02/02 04:06:19;;;;;;;13.02;6.32;;;;;;;-1.93;83.36;95806.06;5042035;28;20052;-75
2023/02/02 04:08:45;;;;;;;10.38;5.50;;;;;;;-1.68;82.67;95807.97;5067227;28;20329;-75
2023/02/02 04:11:10;;;;;;;13.68;8.38;;;;;;;-2.35;83.86;95829.47;5064621;28;20044;-76
2023/02/02 04:13:35;;;;;;;11.02;6.82;;;;;;;-2.24;85.21;95811.41;5068195;28;20077;-74
2023/02/02 04:16:01;;;;;;;13.07;7.85;;;;;;;-2.07;83.59;95830.41;5066444;28;20070;-75
2023/02/02 04:18:27;;;;;;;15.30;6.60;;;;;;;-1.95;83.75;95820.97;5051164;28;20061;-75
2023/02/02 04:20:57;;;;;;;13.50;6.70;;;;;;;-1.86;82.86;95817.81;5067210;28;20084;-75
2023/02/02 04:23:22;;;;;;;15.00;7.47;;;;;;;-2.25;82.87;95830.56;5067781;28;20057;-75
2023/02/02 04:25:49;;;;;;;13.93;6.38;;;;;;;-2.09;84.65;95830.50;5071011;28;20038;-73
2023/02/02 04:28:14;;;;;;;14.60;7.35;;;;;;;-2.35;84.78;95842.50;5071913;28;20077;-75
2023/02/02 04:30:40;;;;;;;13.82;7.10;;;;;;;-2.17;85.18;95840.56;5066975;28;20049;-73
2023/02/02 04:33:05;;;;;;;15.98;7.43;;;;;;;-1.94;83.25;95833.91;5065129;28;20075;-74
2023/02/02 04:35:30;;;;;;;14.57;8.38;;;;;;;-2.47;85.31;95849.28;5077429;28;20048;-73
2023/02/02 04:37:56;;;;;;;15.82;7.63;;;;;;;-2.26;85.95;95840.19;5074693;28;20058;-74
2023/02/02 04:40:21;;;;;;;13.02;7.30;;;;;;;-2.47;85.99;95841.47;5075339;28;20070;-74
2023/02/02 04:42:47;;;;;;;15.60;7.85;;;;;;;-1.91;83.64;95849.41;5073623;28;20445;-74
2023/02/02 04:45:12;;;;;;;14.70;7.75;;;;;;;-2.12;85.07;95852.41;5066400;28;20429;-75
2023/02/02 04:47:38;;;;;;;16.05;6.93;;;;;;;-2.35;85.16;95892.88;5063347;28;20100;-74
2023/02/02 04:50:03;;;;;;;17.20;7.97;;;;;;;-2.41;85.31;95865.41;5065245;28;20148;-73
2023/02/02 04:52:29;;;;;;;11.98;7.45;;;;;;;-2.48;85.51;95852.81;5066913;28;20077;-74
2023/02/02 04:54:54;;;;;;;15.07;6.90;;;;;;;-2.50;86.08;95856.38;5068916;28;20040;-74
2023/02/02 04:57:20;;;;;;;12.18;6.45;;;;;;;-2.38;86.64;95843.50;5060426;28;20099;-75
2023/02/02 04:59:45;;;;;;;13.07;6.45;;;;;;;-2.33;86.35;95843.25;5072947;28;20068;-75
2023/02/02 05:02:10;;;;;;;14.43;7.25;;;;;;;-2.30;85.44;95838.69;5073287;28;20058;-73
2023/02/02 05:04:36;;;;;;;13.00;7.07;;;;;;;-2.38;86.40;95849.56;5069947;28;20068;-75
2023/02/02 05:07:01;;;;;;;10.65;4.68;;;;;;;-1.90;83.82;95848.47;5067610;28;20383;-74
2023/02/02 05:09:27;;;;;;;14.57;6.53;;;;;;;-1.94;83.24;95878.28;5070018;28;20085;-74
2023/02/02 05:11:52;;;;;;;12.60;7.88;;;;;;;-2.39;86.17;95862.69;5067473;28;20128;-75
2023/02/02 05:14:19;;;;;;;14.65;6.70;;;;;;;-2.55;86.33;95854.97;5072508;28;20406;-74
2023/02/02 05:16:44;;;;;;;13.63;7.47;;;;;;;-2.75;87.21;95873.44;5068676;28;20408;-75
2023/02/02 05:19:10;;;;;;;10.93;5.97;;;;;;;-2.21;85.44;95859.94;5072743;28;20057;-74
2023/02/02 05:21:36;;;;;;;12.23;7.13;;;;;;;-2.52;86.65;95852.16;5067747;28;20109;-75
2023/02/02 05:24:02;;;;;;;11.20;6.50;;;;;;;-2.47;86.37;95857.94;5074544;28;20157;-75
2023/02/02 05:26:27;;;;;;;11.07;6.05;;;;;;;-2.22;85.60;95853.88;5069485;28;20087;-74
2023/02/02 05:28:53;;;;;;;13.60;6.72;;;;;;;-2.66;85.84;95898.13;5068670;28;20096;-74
2023/02/02 05:31:18;;;;;;;11.60;5.22;;;;;;;-2.16;85.84;95883.97;5069452;28;20070;-74
2023/02/02 05:33:44;;;;;;;12.63;5.63;;;;;;;-2.16;84.83;95863.09;5068792;28;20074;-73
2023/02/02 05:36:09;;;;;;;12.10;6.22;;;;;;;-2.61;87.19;95874.41;5063330;28;20230;-74
2023/02/02 05:38:35;;;;;;;17.80;7.38;;;;;;;-2.66;87.17;95902.50;5066396;28;20080;-73
2023/02/02 05:41:00;;;;;;;13.02;6.65;;;;;;;-2.52;86.93;95853.00;5052376;28;20252;-75
2023/02/02 05:43:29;;;;;;;15.05;6.70;;;;;;;-2.57;87.40;95895.91;5071504;28;20113;-73
2023/02/02 05:45:54;;;;;;;9.75;6.18;;;;;;;-2.45;86.58;95866.50;5071588;28;20173;-73
2023/02/02 05:48:20;;;;;;;16.85;7.32;;;;;;;-2.70;87.75;95875.78;5072310;28;20467;-74
2023/02/02 05:51:03;;;;;;;14.85;6.93;;;;;;;-2.46;86.35;95892.66;5069088;28;20075;-74
2023/02/02 05:53:29;;;;;;;7.47;4.75;;;;;;;-2.30;86.62;95877.81;5047351;28;20179;-73
2023/02/02 05:55:55;;;;;;;13.40;6.47;;;;;;;-2.34;86.12;95894.59;5067316;28;20110;-73
2023/02/02 05:58:20;;;;;;;10.85;6.22;;;;;;;-2.12;85.18;95885.47;5063901;28;20072;-75
2023/02/02 06:00:45;;;;;;;11.10;6.07;;;;;;;-2.25;85.09;95886.19;5063111;28;20093;-73
2023/02/02 06:03:11;;;;;;;16.38;6.47;;;;;;;-2.25;86.50;95888.81;5069925;28;20082;-74
2023/02/02 06:05:37;;;;;;;13.45;6.85;;;;;;;-2.22;85.39;95879.97;5073550;28;20074;-74
2023/02/02 06:08:03;;;;;;;12.85;7.03;;;;;;;-2.46;85.83;95890.06;5064974;28;20096;-74
2023/02/02 06:10:30;;;;;;;12.65;6.35;;;;;;;-2.13;85.23;95889.00;5062882;28;20061;-75
2023/02/02 06:12:56;;;;;;;14.95;7.05;;;;;;;-2.07;84.18;95874.75;5062360;28;20097;-75
2023/02/02 06:15:21;;;;;;;19.27;7.88;;;;;;;-2.09;84.75;95894.88;5064163;28;20128;-75
2023/02/02 06:17:46;;;;;;;18.60;9.00;;;;;;;-2.23;85.05;95922.63;5064294;28;20077;-75
2023/02/02 06:20:12;;;;;;;20.13;9.25;;;;;;;-2.29;86.29;95889.94;5067628;28;20111;-75
2023/02/02 06:22:37;;;;;;;13.50;6.57;;;;;;;-1.76;84.50;95867.66;5073393;28;20443;-75
2023/02/02 06:25:04;;;;;;;14.00;7.57;;;;;;;-1.85;83.86;95882.13;5067703;28;20102;-74
2023/02/02 06:27:30;;;;;;;19.25;8.70;;;;;;;-2.08;84.64;95886.97;5070523;28;20293;-76
2023/02/02 06:29:55;;;;;;;13.35;7.50;;;;;;;-2.03;84.47;95882.28;5052797;28;20367;-76
2023/02/02 06:32:21;;;;;;;17.63;8.60;;;;;;;-1.93;83.96;95886.97;5064312;28;20090;-74
2023/02/02 06:34:46;;;;;;;14.07;7.10;;;;;;;-1.91;83.70;95887.69;5068080;28;20554;-75
2023/02/02 06:37:11;;;;;;;15.93;8.85;;;;;;;-2.33;86.87;95892.78;5071244;28;20097;-75
2023/02/02 06:39:37;;;;;;;19.30;9.23;;;;;;;-2.18;86.86;95898.88;5056321;28;20094;-75
2023/02/02 06:42:02;;;;;;;18.73;9.38;;;;;;;-2.63;88.14;95879.72;5071045;28;20075;-75
2023/02/02 06:44:28;;;;;;;25.65;10.27;;;;;;;-2.64;88.75;95893.66;5066486;28;20109;-74
2023/02/02 06:46:53;;;;;;;21.30;9.50;;;;;;;-2.53;88.49;95881.78;5069724;28;20090;-74
2023/02/02 06:49:19;;;;;;;16.67;6.68;;;;;;;-2.14;86.63;95882.94;5071360;28;20096;-75
2023/02/02 06:51:46;;;;;;;16.58;7.32;;;;;;;-2.02;85.68;95898.78;5067012;28;20089;-76
2023/02/02 06:54:11;;;;;;;17.77;8.85;;;;;;;-1.90;85.22;95894.63;5071259;28;20140;-74
2023/02/02 06:56:37;;;;;;;17.38;9.57;;;;;;;-2.22;86.19;95905.19;5078410;28;20086;-76
2023/02/02 06:59:02;;;;;;;16.65;9.30;;;;;;;-2.22;85.80;95905.19;5071822;28;20058;-73
2023/02/02 07:01:28;;;;;;;17.05;9.07;;;;;;;-2.01;84.89;95909.16;5074844;28;20185;-74
2023/02/02 07:03:53;;;;;;;13.73;7.47;;;;;;;-2.05;85.22;95896.38;5073313;28;20105;-75
2023/02/02 07:06:21;;;;;;;17.52;8.10;;;;;;;-2.03;85.65;95890.13;5072318;28;20066;-73
2023/02/02 07:08:46;;;;;;;14.52;8.10;;;;;;;-1.96;84.96;95910.63;5072497;28;20146;-75
2023/02/02 07:11:12;;;;;;;16.77;7.30;;;;;;;-2.00;85.02;95882.09;5054097;28;20365;-74
2023/02/02 07:13:37;;;;;;;10.15;6.15;;;;;;;-1.73;84.06;95899.63;5072910;28;20067;-74
2023/02/02 07:16:04;;;;;;;13.70;8.20;;;;;;;-2.41;86.38;95938.41;5071967;28;20083;-74
2023/02/02 07:18:29;;;;;;;13.90;7.28;;;;;;;-2.35;86.57;95903.31;5065720;28;20077;-75
2023/02/02 07:20:58;;;;;;;16.35;8.63;;;;;;;-2.46;87.29;95909.16;5050585;28;20087;-73
2023/02/02 07:23:23;;;;;;;13.77;6.82;;;;;;;-2.29;86.46;95902.13;5062547;28;20143;-75
2023/02/02 07:25:48;;;;;;;14.80;8.52;;;;;;;-2.25;86.30;95932.31;5071658;28;20495;-74
2023/02/02 07:28:14;;;;;;;17.10;9.40;;;;;;;-2.57;87.96;95914.16;5071990;28;20092;-75
2023/02/02 07:30:39;;;;;;;21.92;10.00;;;;;;;-2.58;87.40;95921.13;5073027;28;20071;-75
2023/02/02 07:33:05;;;;;;;20.88;9.57;;;;;;;-2.37;87.60;95899.97;5074452;28;20395;-74
2023/02/02 07:35:30;;;;;;;18.67;9.75;;;;;;;-2.54;87.50;95914.81;5071769;28;20159;-75
2023/02/02 07:37:56;;;;;;;17.00;8.57;;;;;;;-2.33;87.60;95911.91;5074027;28;20112;-74
2023/02/02 07:40:21;;;;;;;26.77;8.93;;;;;;;-2.17;86.50;95921.44;5072447;28;20591;-75
2023/02/02 07:42:47;;;;;;;21.58;10.23;;;;;;;-2.19;86.56;95928.50;5062799;28;20141;-74
2023/02/02 07:45:13;;;;;;;17.48;9.75;;;;;;;-2.15;85.37;95933.47;5067580;28;20094;-74
2023/02/02 07:47:39;;;;;;;13.23;8.15;;;;;;;-2.11;85.72;95937.56;5071161;28;20095;-73
2023/02/02 07:50:04;;;;;;;17.23;8.80;;;;;;;-2.20;85.73;95932.03;5072022;28;20062;-75
2023/02/02 07:52:30;;;;;;;10.52;5.82;;;;;;;-2.21;86.62;95922.56;5070030;28;20432;-65
2023/02/02 07:54:56;;;;;;;21.45;11.63;;;;;;;-2.76;87.90;95933.47;5065380;28;20067;-64
2023/02/02 07:57:21;;;;;;;23.00;10.93;;;;;;;-2.88;90.38;95929.81;5068404;28;20118;-64
2023/02/02 07:59:49;;;;;;;19.75;9.57;;;;;;;-2.72;90.55;95923.72;5067105;28;20096;-63
2023/02/02 08:02:14;;;;;;;20.30;9.52;;;;;;;-2.79;90.22;95920.59;5070218;28;20073;-65
2023/02/02 08:04:40;;;;;;;17.88;9.13;;;;;;;-2.84;90.28;95931.31;5067015;28;20573;-63
2023/02/02 08:07:05;;;;;;;17.80;8.55;;;;;;;-2.75;89.83;95930.78;5071708;28;20520;-65
2023/02/02 08:09:31;;;;;;;16.90;10.13;;;;;;;-2.80;89.34;95940.63;5068576;28;20107;-64
2023/02/02 08:12:00;;;;;;;18.80;9.80;;;;;;;-2.60;89.76;95938.66;5067378;28;20612;-65
2023/02/02 08:14:26;;;;;;;20.97;10.93;;;;;;;-2.87;90.51;95939.28;5070167;28;20063;-64
2023/02/02 08:16:51;;;;;;;19.75;10.18;;;;;;;-2.88;91.23;95938.44;5064601;28;20873;-65
2023/02/02 08:19:16;;;;;;;20.20;8.77;;;;;;;-2.38;88.71;95930.41;5066427;28;20064;-64
2023/02/02 08:21:42;;;;;;;17.60;7.82;;;;;;;-2.30;87.49;95945.66;5065301;28;20547;-65
2023/02/02 08:24:07;;;;;;;21.75;8.77;;;;;;;-2.68;89.67;95939.06;5065843;28;20098;-65
2023/02/02 08:26:33;;;;;;;19.27;9.32;;;;;;;-2.67;90.57;95932.09;5064991;28;20170;-63
2023/02/02 08:29:00;;;;;;;20.83;11.23;;;;;;;-2.83;90.51;95955.56;5066947;28;20079;-66
2023/02/02 08:31:30;;;;;;;19.30;11.15;;;;;;;-2.89;91.96;95943.72;5068769;28;20065;-65
2023/02/02 08:33:57;;;;;;;23.95;12.10;;;;;;;-3.05;92.43;95939.38;5068030;28;20066;-63
2023/02/02 08:36:23;;;;;;;22.83;13.07;;;;;;;-2.90;91.34;95962.91;5067721;28;21045;-63
2023/02/02 08:38:48;;;;;;;28.88;12.88;;;;;;;-3.05;92.67;95944.59;5068968;28;20162;-64
2023/02/02 08:41:15;;;;;;;21.27;10.50;;;;;;;-2.79;92.27;95947.50;5064962;28;20432;-63
2023/02/02 08:43:40;;;;;;;21.05;12.68;;;;;;;-3.04;92.78;95963.66;5064515;28;20457;-62
2023/02/02 08:46:06;;;;;;;21.52;11.52;;;;;;;-2.91;92.31;95958.63;5066302;28;20069;-63
2023/02/02 08:48:32;;;;;;;21.20;11.80;;;;;;;-2.94;92.80;95943.16;5068179;28;20091;-62
2023/02/02 08:50:58;;;;;;;17.35;8.93;;;;;;;-2.73;91.41;95948.09;5067781;28;20082;-65
2023/02/02 08:53:24;;;;;;;15.65;8.32;;;;;;;-2.53;90.92;95960.84;5069031;28;20082;-64
2023/02/02 08:56:10;;;;;;;18.60;11.88;;;;;;;-2.72;91.79;95947.19;5065314;28;20081;-65
2023/02/02 08:58:35;;;;;;;20.98;10.00;;;;;;;-2.70;91.39;95958.34;5065082;28;20092;-64
2023/02/02 09:01:04;;;;;;;16.85;9.05;;;;;;;-2.44;90.14;95967.28;5067177;28;20598;-65
2023/02/02 09:03:30;;;;;;;19.15;9.20;;;;;;;-2.57;90.16;95956.72;5069024;27;20075;-64
2023/02/02 09:05:55;;;;;;;16.48;9.90;;;;;;;-2.82;91.49;95975.53;5070283;28;20143;-65
2023/02/02 09:08:20;;;;;;;16.38;7.18;;;;;;;-2.67;90.79;95968.59;5067433;28;20493;-63
2023/02/02 09:10:46;;;;;;;13.60;7.10;;;;;;;-2.50;90.78;95986.75;5064679;28;21051;-64
2023/02/02 09:13:11;;;;;;;11.35;7.10;;;;;;;-2.55;90.14;95982.72;5062514;28;20505;-64
2023/02/02 09:15:37;;;;;;;15.10;7.80;;;;;;;-2.30;88.66;95976.09;5067301;28;20158;-63
2023/02/02 09:18:03;;;;;;;15.40;7.75;;;;;;;-2.45;89.80;95967.41;5068082;28;20061;-63
2023/02/02 09:20:28;;;;;;;13.40;6.00;;;;;;;-2.28;88.32;95997.69;5068177;28;20192;-63
2023/02/02 09:22:55;;;;;;;15.70;7.43;;;;;;;-2.47;89.88;95975.31;5072141;28;20075;-64
2023/02/02 09:25:20;;;;;;;10.35;5.53;;;;;;;-2.38;89.52;95995.63;5069189;28;20121;-64
2023/02/02 09:27:46;;;;;;;9.52;5.13;;;;;;;-2.34;89.64;95996.31;5066125;28;20108;-63
2023/02/02 09:30:11;;;;;;;11.25;6.45;;;;;;;-2.39;89.18;95999.16;5068828;28;20306;-64
2023/02/02 09:32:37;;;;;;;10.48;6.35;;;;;;;-2.50;89.97;96001.53;5066617;28;20099;-64
2023/02/02 09:35:03;;;;;;;13.93;6.88;;;;;;;-2.28;87.05;96016.81;5062804;28;20126;-64
2023/02/02 09:37:29;;;;;;;8.80;5.30;;;;;;;-2.50;90.33;96012.81;5067926;28;20117;-64
2023/02/02 09:39:55;;;;;;;8.93;5.00;;;;;;;-2.11;88.67;96008.00;5069231;28;20559;-64
2023/02/02 09:42:31;;;;;;;12.20;6.05;;;;;;;-2.36;88.64;96034.66;5068631;28;20073;-64
2023/02/02 09:45:17;;;;;;;11.80;5.90;;;;;;;-2.25;89.36;96029.69;5056414;28;20588;-64
2023/02/02 09:47:52;;;;;;;9.98;5.57;;;;;;;-2.38;89.15;96028.69;5068361;28;20110;-65
2023/02/02 09:50:44;;;;;;;8.00;5.47;;;;;;;-2.21;89.15;96019.06;5065968;28;20526;-64
2023/02/02 09:53:14;;;;;;;9.48;6.22;;;;;;;-2.41;88.17;96042.75;5063649;28;20088;-63
2023/02/02 09:55:44;;;;;;;8.20;5.13;;;;;;;-2.42;89.82;96020.22;5067055;28;20467;-64
2023/02/02 09:58:24;;;;;;;11.75;4.78;;;;;;;-2.36;89.51;96024.22;5065527;28;20532;-64
2023/02/02 10:01:12;;;;;;;11.82;6.25;;;;;;;-2.58;91.15;96037.66;5068279;28;20210;-64
2023/02/02 10:04:13;;;;;;;12.32;6.57;;;;;;;-2.66;90.55;96044.13;5065803;28;20100;-63
2023/02/02 10:06:49;;;;;;;11.77;5.38;;;;;;;-2.40;90.56;96046.19;5057849;28;20088;-64
2023/02/02 10:09:29;;;;;;;12.48;6.60;;;;;;;-2.47;89.88;96037.03;5070632;28;20510;-63
2023/02/02 10:11:57;;;;;;;9.93;5.90;;;;;;;-2.73;92.16;96057.56;5068167;28;20097;-64
2023/02/02 10:14:37;;;;;;;8.07;5.63;;;;;;;-2.50;90.66;96048.47;5065861;28;20079;-64
2023/02/02 10:17:38;;;;;;;12.15;6.72;;;;;;;-2.48;89.81;96036.19;5065309;28;20101;-63
2023/02/02 10:20:32;;;;;;;10.38;4.90;;;;;;;-2.28;89.42;96053.31;5022910;28;20835;-64
2023/02/02 10:23:02;;;;;;;8.68;5.32;;;;;;;-2.37;91.41;96046.03;5071997;28;20146;-63
2023/02/02 10:25:28;;;;;;;9.07;5.43;;;;;;;-1.91;88.71;96042.53;5048483;28;20468;-64
2023/02/02 10:28:25;;;;;;;15.15;7.63;;;;;;;-2.53;90.11;96088.63;5068206;28;20093;-64
2023/02/02 10:30:54;;;;;;;15.00;8.10;;;;;;;-2.71;91.82;96058.34;5072583;28;20239;-62
2023/02/02 10:33:32;;;;;;;13.10;8.70;;;;;;;-2.78;92.29;96079.50;5064862;28;20603;-64
2023/02/02 10:36:04;;;;;;;10.40;6.75;;;;;;;-2.66;91.70;96064.13;5070051;28;20371;-63
2023/02/02 10:38:38;;;;;;;17.35;8.38;;;;;;;-2.72;91.85;96064.47;5071756;28;20359;-64
2023/02/02 10:41:24;;;;;;;9.88;5.55;;;;;;;-2.34;91.57;96058.91;5072612;28;20133;-63
2023/02/02 10:44:08;;;;;;;9.73;5.43;;;;;;;-2.16;89.63;96072.69;5069127;28;20106;-62
2023/02/02 10:46:48;;;;;;;10.00;6.53;;;;;;;-2.43;90.32;96054.19;5070062;28;20440;-64
2023/02/02 10:49:32;;;;;;;8.93;4.45;;;;;;;-2.20;90.47;96060.72;5070695;28;20983;-64
2023/02/02 10:51:59;;;;;;;12.32;7.43;;;;;;;-2.68;91.53;96084.25;5069910;28;20111;-63
2023/02/02 10:54:38;;;;;;;9.23;5.55;;;;;;;-2.37;90.78;96064.28;5071539;28;20078;-63
2023/02/02 10:57:04;;;;;;;10.13;6.50;;;;;;;-2.35;90.18;96056.38;5070673;28;20101;-64
2023/02/02 10:59:31;;;;;;;11.70;6.75;;;;;;;-2.32;91.17;96083.13;5055515;28;20122;-63
2023/02/02 11:01:58;;;;;;;9.68;6.32;;;;;;;-2.33;90.32;96075.38;5067252;28;20086;-64
2023/02/02 11:07:08;;;;;;;11.63;7.22;;;;;;;-2.57;91.23;96089.72;5066985;28;20075;-63
2023/02/02 11:09:39;;;;;;;6.22;4.47;;;;;;;-2.36;92.31;96073.78;5052436;28;20283;-63
2023/02/02 11:12:22;;;;;;;10.43;6.22;;;;;;;-2.53;91.67;96079.94;5067921;28;20611;-63
2023/02/02 11:15:04;;;;;;;8.75;6.43;;;;;;;-2.34;91.94;96090.22;5068753;28;20522;-63
2023/02/02 11:17:29;;;;;;;11.60;7.35;;;;;;;-2.67;92.47;96084.16;5068969;28;20099;-63
2023/02/02 11:19:55;;;;;;;11.48;6.15;;;;;;;-2.47;93.13;96083.97;5072708;28;20103;-62
2023/02/02 11:22:34;;;;;;;12.63;6.32;;;;;;;-2.52;91.50;96065.97;5070698;28;20082;-64
2023/02/02 11:25:04;;;;;;;9.55;6.13;;;;;;;-2.53;92.66;96059.06;5073107;28;20150;-62
2023/02/02 11:27:37;;;;;;;10.57;6.18;;;;;;;-2.57;93.16;96062.78;5068442;28;20075;-62
2023/02/02 11:30:29;;;;;;;10.57;6.35;;;;;;;-2.47;92.53;96063.13;5069151;28;20573;-63
2023/02/02 11:32:55;;;;;;;7.97;5.15;;;;;;;-2.06;90.88;96044.28;5053813;28;20073;-63
2023/02/02 11:35:24;;;;;;;10.73;6.43;;;;;;;-2.05;90.38;96032.06;5065986;28;20080;-61
2023/02/02 11:38:09;;;;;;;11.80;7.55;;;;;;;-2.48;92.41;96071.88;5069205;28;20083;-63
2023/02/02 11:40:41;;;;;;;8.93;6.32;;;;;;;-2.32;91.81;96051.81;5063309;28;20104;-62
2023/02/02 11:43:23;;;;;;;11.20;7.47;;;;;;;-2.24;91.32;96077.50;5050662;28;20105;-63
2023/02/02 11:46:19;;;;;;;10.25;6.88;;;;;;;-1.99;90.07;96079.53;5065965;28;20102;-62